createdAt,value
2022-08-07T00:00:32.735Z,9.719749
2022-08-07T00:01:43.781Z,9.719649
2022-08-07T00:02:39.774Z,9.719650
2022-08-07T00:03:36.581Z,9.719687
2022-08-07T00:04:31.803Z,9.719647
2022-08-07T00:05:31.692Z,9.719444
2022-08-07T00:06:33.664Z,9.719601
2022-08-07T00:07:40.562Z,9.719487
2022-08-07T00:08:32.667Z,9.719753
2022-08-07T00:09:35.573Z,9.719682
2022-08-07T00:10:31.757Z,9.719680
2022-08-07T00:11:33.293Z,9.719727
2022-08-07T00:12:31.638Z,9.719584
2022-08-07T00:13:31.640Z,9.719647
2022-08-07T00:14:31.823Z,9.719630
2022-08-07T00:15:36.034Z,9.719693
2022-08-07T00:16:32.615Z,9.719707
2022-08-07T00:17:35.318Z,9.719698
2022-08-07T00:18:31.592Z,9.719679
2022-08-07T00:19:59.686Z,9.719670
2022-08-07T00:20:34.284Z,9.719768
2022-08-07T00:21:56.352Z,9.719641
2022-08-07T00:22:35.050Z,9.719576
2022-08-07T00:23:31.560Z,9.719571
2022-08-07T00:24:31.951Z,9.719509
2022-08-07T00:25:37.398Z,9.719605
2022-08-07T00:26:49.278Z,9.719686
2022-08-07T00:27:51.852Z,9.719787
2022-08-07T00:28:34.132Z,9.719567
2022-08-07T00:29:32.095Z,9.719503
2022-08-07T00:30:31.519Z,9.719408
2022-08-07T00:31:37.921Z,9.719533
2022-08-07T00:32:32.482Z,9.719514
2022-08-07T00:33:32.930Z,9.719663
2022-08-07T00:34:31.464Z,9.719756
2022-08-07T00:35:31.476Z,9.719860
2022-08-07T00:36:31.454Z,9.719747
2022-08-07T00:37:47.722Z,9.719687
2022-08-07T00:38:33.332Z,9.719603
2022-08-07T00:39:31.497Z,9.719561
2022-08-07T00:40:39.358Z,9.719454
2022-08-07T00:41:32.423Z,9.719586
2022-08-07T00:42:31.463Z,9.719709
2022-08-07T00:44:01.046Z,9.719557
2022-08-07T00:44:33.321Z,9.719672
2022-08-07T00:45:31.409Z,9.719638
2022-08-07T00:46:32.938Z,9.719652
2022-08-07T00:48:09.702Z,9.719636
2022-08-07T00:48:32.656Z,9.719576
2022-08-07T00:50:20.738Z,9.719969
2022-08-07T00:50:50.862Z,9.719611
2022-08-07T00:51:58.481Z,9.719883
2022-08-07T00:52:33.345Z,9.720102
2022-08-07T00:53:39.101Z,9.719809
2022-08-07T00:54:32.321Z,9.719698
2022-08-07T00:56:02.313Z,9.719603
2022-08-07T00:56:33.818Z,9.719426
2022-08-07T00:57:34.148Z,9.719532
2022-08-07T00:58:31.498Z,9.719606
2022-08-07T00:59:35.467Z,9.719704
2022-08-07T01:00:31.323Z,9.719684
2022-08-07T01:01:41.486Z,9.719612
2022-08-07T01:02:32.257Z,9.719379
2022-08-07T01:03:56.252Z,9.719389
2022-08-07T01:04:32.625Z,9.718729
2022-08-07T01:05:31.252Z,9.719613
2022-08-07T01:06:32.231Z,9.719482
2022-08-07T01:07:31.546Z,9.719461
2022-08-07T01:08:31.228Z,9.719535
2022-08-07T01:10:04.817Z,9.719516
2022-08-07T01:10:32.211Z,9.719513
2022-08-07T01:12:09.035Z,9.719491
2022-08-07T01:12:32.226Z,9.719303
2022-08-07T01:13:35.054Z,9.719231
2022-08-07T01:14:31.167Z,9.719363
2022-08-07T01:16:00.610Z,9.719456
2022-08-07T01:16:32.153Z,9.719506
2022-08-07T01:17:31.148Z,9.719671
2022-08-07T01:18:31.138Z,9.719596
2022-08-07T01:19:32.203Z,9.719769
2022-08-07T01:20:31.137Z,9.719677
2022-08-07T01:21:31.114Z,9.719702
2022-08-07T01:22:31.101Z,9.719712
2022-08-07T01:23:36.848Z,9.719727
2022-08-07T01:24:32.097Z,9.719616
2022-08-07T01:25:54.810Z,9.719628
2022-08-07T01:26:32.077Z,9.719614
2022-08-07T01:27:32.527Z,9.719659
2022-08-07T01:28:31.062Z,9.719718
2022-08-07T01:29:31.431Z,9.719666
2022-08-07T01:30:31.068Z,9.719572
2022-08-07T01:31:42.332Z,9.719663
2022-08-07T01:32:32.045Z,9.719575
2022-08-07T01:33:55.955Z,9.719576
2022-08-07T01:34:32.024Z,9.719624
2022-08-07T01:35:53.198Z,9.719637
2022-08-07T01:36:33.942Z,9.719628
2022-08-07T01:37:30.989Z,9.719707
2022-08-07T01:38:30.986Z,9.719694
2022-08-07T01:39:40.735Z,9.719676
2022-08-07T01:40:31.988Z,9.719692
2022-08-07T01:41:30.962Z,9.719687
2022-08-07T01:42:38.210Z,9.719775
2022-08-07T01:43:38.143Z,9.719648
2022-08-07T01:44:31.943Z,9.719663
2022-08-07T01:45:37.241Z,9.719732
2022-08-07T01:46:31.926Z,9.719751
2022-08-07T01:48:27.350Z,9.719700
2022-08-07T01:48:32.421Z,9.719742
2022-08-07T01:49:31.871Z,9.719705
2022-08-07T01:50:30.914Z,9.719666
2022-08-07T01:52:01.134Z,9.719661
2022-08-07T01:52:31.887Z,9.719673
2022-08-07T01:54:08.482Z,9.719652
2022-08-07T01:54:36.385Z,9.719658
2022-08-07T01:55:30.875Z,9.719698
2022-08-07T01:56:30.854Z,9.719640
2022-08-07T01:57:30.861Z,9.719636
2022-08-07T01:58:33.353Z,9.719698
2022-08-07T01:59:31.632Z,9.719579
2022-08-07T02:00:30.851Z,9.719601
2022-08-07T02:02:02.446Z,9.719688
2022-08-07T02:02:32.511Z,9.719646
2022-08-07T02:03:42.755Z,9.719672
2022-08-07T02:04:31.868Z,9.719642
2022-08-07T02:05:43.313Z,9.719725
2022-08-07T02:06:32.503Z,9.719744
2022-08-07T02:07:36.242Z,9.719765
2022-08-07T02:08:31.770Z,9.719792
2022-08-07T02:09:51.690Z,9.719651
2022-08-07T02:10:31.790Z,9.719625
2022-08-07T02:12:02.862Z,9.719643
2022-08-07T02:12:31.738Z,9.719652
2022-08-07T02:13:58.245Z,9.719675
2022-08-07T02:14:40.552Z,9.719660
2022-08-07T02:15:31.715Z,9.719524
2022-08-07T02:16:33.129Z,9.719499
2022-08-07T02:17:34.025Z,9.719563
2022-08-07T02:18:30.699Z,9.719698
2022-08-07T02:20:07.817Z,9.719669
2022-08-07T02:20:31.678Z,9.719617
2022-08-07T02:21:55.193Z,9.719657
2022-08-07T02:22:31.662Z,9.719680
2022-08-07T02:23:30.652Z,9.719681
2022-08-07T02:24:31.651Z,9.719662
2022-08-07T02:26:10.142Z,9.719693
2022-08-07T02:26:34.700Z,9.719674
2022-08-07T02:27:34.380Z,9.719689
2022-08-07T02:28:30.621Z,9.719673
2022-08-07T02:29:30.662Z,9.719618
2022-08-07T02:30:30.601Z,9.719700
2022-08-07T02:31:30.613Z,9.719855
2022-08-07T02:32:30.586Z,9.719936
2022-08-07T02:33:42.084Z,9.720049
2022-08-07T02:34:31.573Z,9.720054
2022-08-07T02:36:30.728Z,9.720074
2022-08-07T02:36:33.011Z,9.719837
2022-08-07T02:37:35.913Z,9.719749
2022-08-07T02:38:32.158Z,9.719550
2022-08-07T02:39:43.906Z,9.719800
2022-08-07T02:40:35.251Z,9.719766
2022-08-07T02:41:33.637Z,9.719892
2022-08-07T02:42:30.515Z,9.719631
2022-08-07T02:43:30.502Z,9.719606
2022-08-07T02:44:34.824Z,9.719592
2022-08-07T02:46:00.434Z,9.719638
2022-08-07T02:46:31.536Z,9.719625
2022-08-07T02:47:45.161Z,9.719682
2022-08-07T02:48:31.471Z,9.719778
2022-08-07T02:49:58.312Z,9.719662
2022-08-07T02:50:31.462Z,9.719808
2022-08-07T02:51:49.648Z,9.719952
2022-08-07T02:52:32.386Z,9.719657
2022-08-07T02:53:30.432Z,9.719452
2022-08-07T02:54:30.423Z,9.719579
2022-08-07T02:56:03.014Z,9.719869
2022-08-07T02:56:31.630Z,9.719481
2022-08-07T02:57:31.048Z,9.719454
2022-08-07T02:58:33.459Z,9.719294
2022-08-07T02:59:30.393Z,9.719402
2022-08-07T03:00:30.586Z,9.719599
2022-08-07T03:01:35.946Z,9.719544
2022-08-07T03:02:31.381Z,9.719678
2022-08-07T03:03:49.143Z,9.719598
2022-08-07T03:04:31.386Z,9.719708
2022-08-07T03:05:35.990Z,9.719705
2022-08-07T03:06:33.108Z,9.719423
2022-08-07T03:08:04.601Z,9.719348
2022-08-07T03:08:31.327Z,9.719373
2022-08-07T03:09:41.825Z,9.719644
2022-08-07T03:10:31.337Z,9.719366
2022-08-07T03:11:32.934Z,9.719419
2022-08-07T03:12:31.358Z,9.719769
2022-08-07T03:13:30.290Z,9.719601
2022-08-07T03:14:30.289Z,9.719652
2022-08-07T03:15:47.831Z,9.719580
2022-08-07T03:16:31.293Z,9.719519
2022-08-07T03:17:30.442Z,9.719599
2022-08-07T03:18:34.965Z,9.719617
2022-08-07T03:19:36.892Z,9.719546
2022-08-07T03:20:31.243Z,9.719496
2022-08-07T03:21:33.199Z,9.719534
2022-08-07T03:22:30.723Z,9.719656
2022-08-07T03:23:33.904Z,9.719665
2022-08-07T03:24:31.216Z,9.719791
2022-08-07T03:25:32.505Z,9.719688
2022-08-07T03:26:31.198Z,9.719556
2022-08-07T03:27:42.128Z,9.719536
2022-08-07T03:28:38.048Z,9.719708
2022-08-07T03:29:30.175Z,9.719274
2022-08-07T03:30:30.160Z,9.719532
2022-08-07T03:31:43.433Z,9.719755
2022-08-07T03:32:31.167Z,9.719680
2022-08-07T03:33:32.246Z,9.719847
2022-08-07T03:34:31.141Z,9.719913
2022-08-07T03:35:43.876Z,9.720134
2022-08-07T03:36:31.127Z,9.719919
2022-08-07T03:37:30.156Z,9.719823
2022-08-07T03:38:33.223Z,9.719525
2022-08-07T03:39:56.594Z,9.719634
2022-08-07T03:40:36.548Z,9.719647
2022-08-07T03:41:42.328Z,9.719725
2022-08-07T03:42:31.368Z,9.719668
2022-08-07T03:43:32.126Z,9.719638
2022-08-07T03:44:34.350Z,9.719591
2022-08-07T03:45:31.502Z,9.719676
2022-08-07T03:46:30.140Z,9.719578
2022-08-07T03:47:47.896Z,9.719587
2022-08-07T03:48:31.047Z,9.719625
2022-08-07T03:49:30.054Z,9.719636
2022-08-07T03:50:30.020Z,9.719695
2022-08-07T03:51:30.845Z,9.719632
2022-08-07T03:52:31.020Z,9.719692
2022-08-07T03:54:00.691Z,9.719695
2022-08-07T03:54:36.255Z,9.719613
2022-08-07T03:55:53.139Z,9.719560
2022-08-07T03:56:32.652Z,9.719576
2022-08-07T03:58:32.891Z,9.719688
2022-08-07T03:59:07.478Z,9.719620
2022-08-07T03:59:30.948Z,9.719527
2022-08-07T04:00:33.421Z,9.719557
2022-08-07T04:01:30.007Z,9.719610
2022-08-07T04:02:29.929Z,9.719553
2022-08-07T04:03:49.719Z,9.719574
2022-08-07T04:04:32.770Z,9.719582
2022-08-07T04:05:40.983Z,9.719592
2022-08-07T04:06:38.044Z,9.719580
2022-08-07T04:07:36.192Z,9.719565
2022-08-07T04:08:30.898Z,9.719568
2022-08-07T04:09:44.644Z,9.719326
2022-08-07T04:10:30.869Z,9.719365
2022-08-07T04:12:25.455Z,9.719396
2022-08-07T04:12:30.869Z,9.719679
2022-08-07T04:13:29.845Z,9.719561
2022-08-07T04:14:37.518Z,9.719301
2022-08-07T04:15:30.835Z,9.719727
2022-08-07T04:16:30.799Z,9.719708
2022-08-07T04:18:31.115Z,9.719574
2022-08-07T04:18:59.130Z,9.719574
2022-08-07T04:19:51.140Z,9.719950
2022-08-07T04:20:30.825Z,9.719751
2022-08-07T04:21:31.875Z,9.719855
2022-08-07T04:22:30.041Z,9.719645
2022-08-07T04:23:43.600Z,9.719778
2022-08-07T04:24:38.808Z,9.719778
2022-08-07T04:25:30.754Z,9.719778
2022-08-07T04:26:29.748Z,9.719444
2022-08-07T04:27:35.684Z,9.719588
2022-08-07T04:28:30.741Z,9.719617
2022-08-07T04:29:40.328Z,9.719494
2022-08-07T04:30:43.927Z,9.719430
2022-08-07T04:31:39.043Z,9.719605
2022-08-07T04:32:34.444Z,9.719747
2022-08-07T04:33:29.695Z,9.719644
2022-08-07T04:34:33.089Z,9.719743
2022-08-07T04:35:35.171Z,9.719642
2022-08-07T04:36:30.708Z,9.719690
2022-08-07T04:37:29.682Z,9.719839
2022-08-07T04:38:30.672Z,9.719782
2022-08-07T04:39:35.606Z,9.719685
2022-08-07T04:40:32.255Z,9.719522
2022-08-07T04:41:29.641Z,9.719668
2022-08-07T04:42:29.650Z,9.719605
2022-08-07T04:44:13.142Z,9.719655
2022-08-07T04:44:30.621Z,9.719501
2022-08-07T04:46:00.295Z,9.719603
2022-08-07T04:46:34.816Z,9.719677
2022-08-07T04:47:58.893Z,9.719528
2022-08-07T04:48:30.587Z,9.719685
2022-08-07T04:49:29.571Z,9.719652
2022-08-07T04:50:29.577Z,9.719431
2022-08-07T04:51:29.588Z,9.719394
2022-08-07T04:52:29.557Z,9.719557
2022-08-07T04:54:01.691Z,9.719640
2022-08-07T04:54:30.561Z,9.719603
2022-08-07T04:58:15.140Z,9.719589
2022-08-07T04:58:16.042Z,9.719641
2022-08-07T04:58:16.149Z,9.719632
2022-08-07T04:58:49.661Z,9.719646
2022-08-07T05:00:10.703Z,9.719623
2022-08-07T05:00:32.334Z,9.719608
2022-08-07T05:01:30.051Z,9.719530
2022-08-07T05:02:29.487Z,9.719574
2022-08-07T05:04:00.519Z,9.719521
2022-08-07T05:04:30.476Z,9.719607
2022-08-07T05:05:53.344Z,9.719614
2022-08-07T05:06:43.770Z,9.719652
2022-08-07T05:07:36.803Z,9.719614
2022-08-07T05:08:59.607Z,9.719615
2022-08-07T05:09:45.938Z,9.719627
2022-08-07T05:10:30.431Z,9.719666
2022-08-07T05:11:57.987Z,9.719747
2022-08-07T05:12:30.762Z,9.719630
2022-08-07T05:14:54.448Z,9.719724
2022-08-07T05:14:55.862Z,9.719615
2022-08-07T05:15:30.392Z,9.719634
2022-08-07T05:16:29.388Z,9.719609
2022-08-07T05:17:52.803Z,9.719708
2022-08-07T05:18:30.368Z,9.719584
2022-08-07T05:19:32.629Z,9.719551
2022-08-07T05:20:30.361Z,9.719831
2022-08-07T05:21:59.864Z,9.719674
2022-08-07T05:22:30.374Z,9.719823
2022-08-07T05:23:30.932Z,9.719604
2022-08-07T05:24:30.617Z,9.719664
2022-08-07T05:25:54.429Z,9.719712
2022-08-07T05:26:30.318Z,9.719773
2022-08-07T05:28:02.553Z,9.719651
2022-08-07T05:28:30.466Z,9.719617
2022-08-07T05:29:48.053Z,9.719684
2022-08-07T05:30:33.058Z,9.719733
2022-08-07T05:31:35.384Z,9.719649
2022-08-07T05:32:30.351Z,9.719700
2022-08-07T05:33:29.280Z,9.719712
2022-08-07T05:34:29.261Z,9.719773
2022-08-07T05:35:33.831Z,9.719758
2022-08-07T05:36:35.419Z,9.719752
2022-08-07T05:37:30.587Z,9.719690
2022-08-07T05:38:59.732Z,9.719591
2022-08-07T05:40:06.424Z,9.719542
2022-08-07T05:40:30.243Z,9.719565
2022-08-07T05:42:02.322Z,9.719668
2022-08-07T05:42:34.448Z,9.719702
2022-08-07T05:43:50.091Z,9.719595
2022-08-07T05:44:30.182Z,9.719543
2022-08-07T05:45:47.278Z,9.719596
2022-08-07T05:46:30.171Z,9.719551
2022-08-07T05:48:00.021Z,9.719577
2022-08-07T05:48:30.170Z,9.719592
2022-08-07T05:49:40.718Z,9.719614
2022-08-07T05:50:30.142Z,9.719502
2022-08-07T05:51:31.722Z,9.719591
2022-08-07T05:52:32.527Z,9.719640
2022-08-07T05:54:13.643Z,9.719620
2022-08-07T05:54:44.416Z,9.719593
2022-08-07T05:56:02.325Z,9.719668
2022-08-07T05:56:30.358Z,9.719549
2022-08-07T05:57:30.199Z,9.719563
2022-08-07T05:58:36.902Z,9.719506
2022-08-07T05:59:29.075Z,9.719592
2022-08-07T06:00:29.066Z,9.719611
2022-08-07T06:01:34.938Z,9.719547
2022-08-07T06:02:30.746Z,9.719629
2022-08-07T06:03:53.711Z,9.719363
2022-08-07T06:04:30.424Z,9.719281
2022-08-07T06:05:29.035Z,9.719526
2022-08-07T06:06:29.979Z,9.719369
2022-08-07T06:08:13.790Z,9.719542
2022-08-07T06:08:31.510Z,9.719600
2022-08-07T06:10:04.488Z,9.719604
2022-08-07T06:10:29.995Z,9.719614
2022-08-07T06:11:28.983Z,9.719271
2022-08-07T06:12:33.052Z,9.719391
2022-08-07T06:14:10.915Z,9.719586
2022-08-07T06:14:30.269Z,9.719652
2022-08-07T06:15:39.292Z,9.719677
2022-08-07T06:16:29.950Z,9.719723
2022-08-07T06:17:31.926Z,9.719718
2022-08-07T06:18:29.949Z,9.719964
2022-08-07T06:19:52.253Z,9.719964
2022-08-07T06:20:38.142Z,9.719964
2022-08-07T06:22:16.875Z,9.719704
2022-08-07T06:22:29.902Z,9.719554
2022-08-07T06:24:37.691Z,9.719627
2022-08-07T06:24:45.721Z,9.719403
2022-08-07T06:25:34.790Z,9.719422
2022-08-07T06:26:29.875Z,9.719509
2022-08-07T06:27:59.946Z,9.719397
2022-08-07T06:28:29.873Z,9.719679
2022-08-07T06:29:28.853Z,9.719925
2022-08-07T06:30:35.628Z,9.719828
2022-08-07T06:31:38.378Z,9.719811
2022-08-07T06:32:29.836Z,9.719648
2022-08-07T06:33:29.549Z,9.719713
2022-08-07T06:34:30.413Z,9.719685
2022-08-07T06:35:39.014Z,9.719728
2022-08-07T06:36:35.239Z,9.719607
2022-08-07T06:37:43.434Z,9.719636
2022-08-07T06:38:30.337Z,9.719613
2022-08-07T06:40:16.392Z,9.719707
2022-08-07T06:40:34.261Z,9.719507
2022-08-07T06:42:01.655Z,9.719163
2022-08-07T06:42:33.115Z,9.718757
2022-08-07T06:43:35.947Z,9.718757
2022-08-07T06:44:33.907Z,9.718757
2022-08-07T06:45:28.730Z,9.718757
2022-08-07T06:46:31.528Z,9.718757
2022-08-07T06:47:28.907Z,9.718757
2022-08-07T06:48:29.723Z,9.718757
2022-08-07T06:49:28.700Z,9.718757
2022-08-07T06:50:30.481Z,9.718757
2022-08-07T06:51:33.507Z,9.718757
2022-08-07T06:52:31.727Z,9.718757
2022-08-07T06:54:12.016Z,9.718757
2022-08-07T06:55:32.011Z,9.718757
2022-08-07T06:55:48.047Z,9.718757
2022-08-07T06:56:29.659Z,9.718757
2022-08-07T06:57:28.650Z,9.719672
2022-08-07T06:58:29.653Z,9.719580
2022-08-07T07:00:14.775Z,9.719600
2022-08-07T07:00:30.393Z,9.719610
2022-08-07T07:01:33.252Z,9.719570
2022-08-07T07:02:53.570Z,9.719536
2022-08-07T07:03:47.632Z,9.719585
2022-08-07T07:04:33.236Z,9.719400
2022-08-07T07:06:04.893Z,9.719528
2022-08-07T07:06:29.574Z,9.719531
2022-08-07T07:08:00.330Z,9.719620
2022-08-07T07:08:29.840Z,9.719691
2022-08-07T07:09:31.352Z,9.719676
2022-08-07T07:10:28.583Z,9.719568
2022-08-07T07:12:08.692Z,9.719481
2022-08-07T07:12:33.439Z,9.719679
2022-08-07T07:13:56.330Z,9.719687
2022-08-07T07:14:29.528Z,9.719634
2022-08-07T07:15:32.554Z,9.719645
2022-08-07T07:16:30.254Z,9.719753
2022-08-07T07:17:38.663Z,9.719653
2022-08-07T07:18:47.164Z,9.719682
2022-08-07T07:19:55.149Z,9.719644
2022-08-07T07:20:29.472Z,9.719493
2022-08-07T07:21:40.389Z,9.719636
2022-08-07T07:22:35.955Z,9.719471
2022-08-07T07:24:10.384Z,9.719441
2022-08-07T07:24:29.446Z,9.719456
2022-08-07T07:26:32.140Z,9.719431
2022-08-07T07:26:32.620Z,9.719501
2022-08-07T07:27:35.571Z,9.719190
2022-08-07T07:28:42.077Z,9.719189
2022-08-07T07:29:56.491Z,9.719027
2022-08-07T07:30:37.832Z,9.719132
2022-08-07T07:31:30.337Z,9.719250
2022-08-07T07:32:29.382Z,9.719229
2022-08-07T07:33:28.411Z,9.719387
2022-08-07T07:34:30.894Z,9.719126
2022-08-07T07:35:28.362Z,9.719440
2022-08-07T07:36:32.613Z,9.719632
2022-08-07T07:37:47.488Z,9.719667
2022-08-07T07:38:29.573Z,9.720051
2022-08-07T07:39:35.892Z,9.720002
2022-08-07T07:40:29.326Z,9.720259
2022-08-07T07:41:30.782Z,9.720203
2022-08-07T07:42:32.909Z,9.719934
2022-08-07T07:44:14.041Z,9.720111
2022-08-07T07:44:29.295Z,9.719625
2022-08-07T07:46:36.484Z,9.719915
2022-08-07T07:46:40.314Z,9.719514
2022-08-07T07:47:29.288Z,9.719725
2022-08-07T07:48:34.999Z,9.719503
2022-08-07T07:50:32.840Z,9.719554
2022-08-07T07:50:36.255Z,9.719302
2022-08-07T07:51:28.244Z,9.719167
2022-08-07T07:52:28.437Z,9.719209
2022-08-07T07:53:28.239Z,9.719030
2022-08-07T07:54:29.212Z,9.719026
2022-08-07T07:55:37.812Z,9.717750
2022-08-07T07:56:29.978Z,9.718691
2022-08-07T07:57:50.465Z,9.718608
2022-08-07T07:58:29.195Z,9.718787
2022-08-07T07:59:52.463Z,9.719266
2022-08-07T08:00:34.230Z,9.719398
2022-08-07T08:02:02.047Z,9.719423
2022-08-07T08:02:35.707Z,9.719536
2022-08-07T08:04:05.776Z,9.719426
2022-08-07T08:04:29.188Z,9.719413
2022-08-07T08:05:42.796Z,9.719357
2022-08-07T08:06:29.127Z,9.719553
2022-08-07T08:07:35.869Z,9.719682
2022-08-07T08:08:34.790Z,9.719592
2022-08-07T08:09:29.865Z,9.719408
2022-08-07T08:10:35.572Z,9.719460
2022-08-07T08:11:59.447Z,9.719464
2022-08-07T08:12:52.033Z,9.719390
2022-08-07T08:13:36.687Z,9.719467
2022-08-07T08:14:29.073Z,9.719476
2022-08-07T08:15:28.068Z,9.719440
2022-08-07T08:16:30.034Z,9.719601
2022-08-07T08:17:56.564Z,9.719661
2022-08-07T08:18:29.032Z,9.719661
2022-08-07T08:20:17.029Z,9.719646
2022-08-07T08:20:32.112Z,9.719626
2022-08-07T08:22:02.624Z,9.719609
2022-08-07T08:22:32.657Z,9.719599
2022-08-07T08:23:28.149Z,9.719602
2022-08-07T08:24:36.591Z,9.719564
2022-08-07T08:25:42.785Z,9.719574
2022-08-07T08:26:28.970Z,9.719685
2022-08-07T08:27:33.681Z,9.719665
2022-08-07T08:28:37.732Z,9.719660
2022-08-07T08:29:28.033Z,9.719585
2022-08-07T08:30:27.957Z,9.719565
2022-08-07T08:31:59.038Z,9.719588
2022-08-07T08:32:39.513Z,9.719681
2022-08-07T08:33:33.018Z,9.719625
2022-08-07T08:34:29.175Z,9.719646
2022-08-07T08:35:28.919Z,9.719576
2022-08-07T08:36:29.973Z,9.719705
2022-08-07T08:38:00.466Z,9.719644
2022-08-07T08:38:29.911Z,9.719618
2022-08-07T08:39:39.635Z,9.719625
2022-08-07T08:40:29.047Z,9.719619
2022-08-07T08:41:31.435Z,9.719742
2022-08-07T08:42:28.854Z,9.719658
2022-08-07T08:43:41.790Z,9.719632
2022-08-07T08:44:29.333Z,9.719656
2022-08-07T08:45:41.897Z,9.719630
2022-08-07T08:46:28.824Z,9.719636
2022-08-07T08:47:27.989Z,9.719615
2022-08-07T08:48:32.452Z,9.719569
2022-08-07T08:49:33.432Z,9.719599
2022-08-07T08:50:35.386Z,9.719621
2022-08-07T08:52:00.770Z,9.719644
2022-08-07T08:52:32.167Z,9.719612
2022-08-07T08:53:29.286Z,9.719592
2022-08-07T08:54:27.798Z,9.719603
2022-08-07T08:55:54.935Z,9.719679
2022-08-07T08:56:28.759Z,9.719833
2022-08-07T08:57:30.117Z,9.719674
2022-08-07T08:58:28.903Z,9.719592
2022-08-07T08:59:27.791Z,9.719575
2022-08-07T09:00:28.637Z,9.719672
2022-08-07T09:01:29.625Z,9.719705
2022-08-07T09:02:34.784Z,9.719714
2022-08-07T09:03:49.474Z,9.719728
2022-08-07T09:04:30.170Z,9.719795
2022-08-07T09:05:37.294Z,9.719819
2022-08-07T09:06:28.687Z,9.719868
2022-08-07T09:07:28.001Z,9.719589
2022-08-07T09:08:28.979Z,9.719439
2022-08-07T09:09:30.283Z,9.719460
2022-08-07T09:10:27.682Z,9.719512
2022-08-07T09:11:50.814Z,9.719466
2022-08-07T09:12:31.891Z,9.719624
2022-08-07T09:13:35.325Z,9.719702
2022-08-07T09:14:29.683Z,9.719661
2022-08-07T09:16:20.645Z,9.719686
2022-08-07T09:16:29.806Z,9.719665
2022-08-07T09:17:33.946Z,9.719634
2022-08-07T09:18:28.634Z,9.719631
2022-08-07T09:19:51.047Z,9.719604
2022-08-07T09:20:35.306Z,9.719622
2022-08-07T09:21:58.070Z,9.719611
2022-08-07T09:24:32.368Z,9.719587
2022-08-07T09:24:34.081Z,9.719598
2022-08-07T09:24:55.125Z,9.719619
2022-08-07T09:25:28.567Z,9.719646
2022-08-07T09:26:27.568Z,9.719626
2022-08-07T09:27:27.820Z,9.719562
2022-08-07T09:30:01.698Z,9.719578
2022-08-07T09:30:03.417Z,9.719642
2022-08-07T09:30:28.540Z,9.719643
2022-08-07T09:31:27.531Z,9.719646
2022-08-07T09:32:28.521Z,9.719629
2022-08-07T09:33:52.442Z,9.719645
2022-08-07T09:34:28.523Z,9.719682
2022-08-07T09:36:05.295Z,9.719728
2022-08-07T09:36:31.181Z,9.719675
2022-08-07T09:37:47.793Z,9.719691
2022-08-07T09:38:28.528Z,9.719633
2022-08-07T09:39:54.627Z,9.719676
2022-08-07T09:40:28.523Z,9.719683
2022-08-07T09:41:27.791Z,9.719673
2022-08-07T09:42:33.003Z,9.719681
2022-08-07T09:44:03.493Z,9.719708
2022-08-07T09:44:46.528Z,9.719662
2022-08-07T09:47:37.226Z,9.719584
2022-08-07T09:47:52.607Z,9.719585
2022-08-07T09:48:00.907Z,9.719664
2022-08-07T09:48:29.695Z,9.719723
2022-08-07T09:50:02.932Z,9.719677
2022-08-07T09:50:30.193Z,9.719696
2022-08-07T09:52:09.787Z,9.719626
2022-08-07T09:52:33.791Z,9.719606
2022-08-07T09:53:41.373Z,9.719707
2022-08-07T09:54:28.443Z,9.719640
2022-08-07T09:55:36.922Z,9.719594
2022-08-07T09:56:37.668Z,9.719569
2022-08-07T09:57:28.668Z,9.719536
2022-08-07T09:58:32.155Z,9.719437
2022-08-07T09:59:35.653Z,9.719365
2022-08-07T10:00:29.943Z,9.719432
2022-08-07T10:01:51.100Z,9.719444
2022-08-07T10:02:29.536Z,9.719500
2022-08-07T10:04:05.603Z,9.719490
2022-08-07T10:04:32.558Z,9.719647
2022-08-07T10:05:58.205Z,9.719710
2022-08-07T10:06:28.386Z,9.719722
2022-08-07T10:07:31.615Z,9.719604
2022-08-07T10:08:27.360Z,9.719527
2022-08-07T10:09:42.958Z,9.719558
2022-08-07T10:10:28.361Z,9.719604
2022-08-07T10:11:59.802Z,9.719651
2022-08-07T10:12:28.484Z,9.719661
2022-08-07T10:13:55.518Z,9.719580
2022-08-07T10:14:31.337Z,9.719586
2022-08-07T10:15:27.290Z,9.719545
2022-08-07T10:16:27.282Z,9.719643
2022-08-07T10:17:30.969Z,9.719608
2022-08-07T10:18:28.265Z,9.719646
2022-08-07T10:19:27.277Z,9.719607
2022-08-07T10:20:30.404Z,9.719561
2022-08-07T10:22:12.157Z,9.719573
2022-08-07T10:22:33.349Z,9.719538
2022-08-07T10:24:05.312Z,9.719584
2022-08-07T10:24:28.284Z,9.719621
2022-08-07T10:25:42.489Z,9.719460
2022-08-07T10:26:28.229Z,9.719486
2022-08-07T10:27:29.989Z,9.719335
2022-08-07T10:28:28.227Z,9.719163
2022-08-07T10:29:30.384Z,9.718970
2022-08-07T10:30:27.222Z,9.718994
2022-08-07T10:31:27.209Z,9.719280
2022-08-07T10:32:51.301Z,9.719790
2022-08-07T10:34:15.609Z,9.720081
2022-08-07T10:34:32.347Z,9.719792
2022-08-07T10:35:27.208Z,9.719405
2022-08-07T10:36:29.752Z,9.719924
2022-08-07T10:38:00.065Z,9.719473
2022-08-07T10:38:35.923Z,9.719004
2022-08-07T10:39:41.475Z,9.719455
2022-08-07T10:40:30.374Z,9.719630
2022-08-07T10:41:51.609Z,9.719430
2022-08-07T10:42:34.283Z,9.719480
2022-08-07T10:43:29.861Z,9.719614
2022-08-07T10:44:33.742Z,9.719666
2022-08-07T10:45:48.016Z,9.719558
2022-08-07T10:46:28.141Z,9.719653
2022-08-07T10:47:50.570Z,9.719662
2022-08-07T10:48:34.580Z,9.719677
2022-08-07T10:49:49.269Z,9.719667
2022-08-07T10:50:28.133Z,9.719677
2022-08-07T10:51:57.662Z,9.719594
2022-08-07T10:52:31.695Z,9.719596
2022-08-07T10:53:28.102Z,9.719634
2022-08-07T10:54:28.104Z,9.719647
2022-08-07T10:55:38.174Z,9.719737
2022-08-07T10:56:31.060Z,9.719687
2022-08-07T10:57:34.423Z,9.719648
2022-08-07T10:58:33.352Z,9.719646
2022-08-07T10:59:30.212Z,9.719685
2022-08-07T11:00:36.468Z,9.719626
2022-08-07T11:01:35.378Z,9.719600
2022-08-07T11:02:34.176Z,9.719610
2022-08-07T11:03:37.340Z,9.719635
2022-08-07T11:04:34.488Z,9.719715
2022-08-07T11:05:35.833Z,9.719786
2022-08-07T11:06:28.049Z,9.719637
2022-08-07T11:08:00.504Z,9.719600
2022-08-07T11:08:30.296Z,9.719585
2022-08-07T11:10:09.132Z,9.719583
2022-08-07T11:10:28.048Z,9.719654
2022-08-07T11:11:27.087Z,9.719654
2022-08-07T11:12:31.588Z,9.719598
2022-08-07T11:14:44.399Z,9.719635
2022-08-07T11:14:57.311Z,9.719627
2022-08-07T11:15:31.842Z,9.719660
2022-08-07T11:16:30.562Z,9.719629
2022-08-07T11:17:45.118Z,9.719584
2022-08-07T11:18:28.020Z,9.719659
2022-08-07T11:19:27.454Z,9.719730
2022-08-07T11:20:27.007Z,9.719553
2022-08-07T11:21:26.974Z,9.719580
2022-08-07T11:22:36.143Z,9.719725
2022-08-07T11:23:36.362Z,9.719604
2022-08-07T11:24:27.974Z,9.719729
2022-08-07T11:25:26.981Z,9.719659
2022-08-07T11:26:26.992Z,9.719584
2022-08-07T11:28:00.812Z,9.719677
2022-08-07T11:28:27.965Z,9.719629
2022-08-07T11:29:40.855Z,9.719634
2022-08-07T11:30:42.028Z,9.719673
2022-08-07T11:31:27.945Z,9.719646
2022-08-07T11:32:26.936Z,9.719731
2022-08-07T11:33:58.356Z,9.719682
2022-08-07T11:34:27.932Z,9.719616
2022-08-07T11:35:27.148Z,9.719714
2022-08-07T11:36:30.959Z,9.719700
2022-08-07T11:37:38.638Z,9.719624
2022-08-07T11:38:28.338Z,9.719685
2022-08-07T11:39:39.579Z,9.719621
2022-08-07T11:40:27.961Z,9.719626
2022-08-07T11:41:31.099Z,9.719562
2022-08-07T11:42:27.909Z,9.719640
2022-08-07T11:43:41.726Z,9.719668
2022-08-07T11:44:27.944Z,9.719713